Terminal Aerodrome Forecast
Issued by NWS Central Illinois

Home | Current Version | Previous Version | Text Only | Print | Product List | Glossary On
Versions: 1 2 3 4 5 6 7 8 9 10 11 12 13 14 15 16 17 18 19 20 21 22 23 24 25 26 27 28 29
000
FTUS43 KILX 062332
TAFSPI
TAF
KSPI 062332Z 0700/0724 19014KT P6SM VCTS SCT035CB BKN250
     FM070300 18010KT P6SM VCTS BKN045CB
      TEMPO 0704/0707 3SM TSRA BR BKN025CB
     FM070800 22008KT 5SM -SHRA BR VCTS SCT012 OVC035CB
     FM071200 04009KT 3SM -RA BR BKN006 OVC012
     FM071800 02008KT 4SM -RA BR SCT007 OVC015=

USA.gov is the U.S. government's official web portal to all federal, state and local government web resources and services.